Time;durP1;ratioP1;P1;durP2;ratioP2;P2;SDS_P1;SDS_P2;PMS_P1;PMS_P2;Temp;Humidity;BMP_temperature;BMP_pressure;BME280_temperature;BME280_humidity;BME280_pressure;Samples;Min_cycle;Max_cycle;Signal;HPM_P1;HPM_P2
2022/10/13 00:00:24;;;;;;;11.77;9.73;;;;;;;10.26;100.00;101940.00;5073286;28;20071;-34
2022/10/13 00:02:49;;;;;;;14.75;9.68;;;;;;;10.30;100.00;101940.44;5073369;28;20056;-34
2022/10/13 00:05:14;;;;;;;17.90;9.27;;;;;;;10.30;100.00;101935.03;5073343;28;20439;-34
2022/10/13 00:07:40;;;;;;;13.00;8.93;;;;;;;10.32;100.00;101943.75;5073331;28;20027;-34
2022/10/13 00:10:05;;;;;;;14.87;10.07;;;;;;;10.32;100.00;101939.19;5073271;28;20028;-35
2022/10/13 00:12:34;;;;;;;10.90;9.38;;;;;;;10.33;100.00;101929.19;5073493;28;20107;-34
2022/10/13 00:14:59;;;;;;;13.45;9.57;;;;;;;10.32;100.00;101922.13;5073530;28;20032;-34
2022/10/13 00:17:24;;;;;;;17.00;10.27;;;;;;;10.36;100.00;101925.28;5072334;28;20024;-34
2022/10/13 00:19:50;;;;;;;13.50;9.37;;;;;;;10.38;100.00;101920.47;5073289;28;20035;-34
2022/10/13 00:22:15;;;;;;;13.67;9.27;;;;;;;10.40;100.00;101915.72;5073112;28;20035;-35
2022/10/13 00:24:40;;;;;;;14.80;9.53;;;;;;;10.42;100.00;101916.34;5073009;28;20433;-35
2022/10/13 00:27:06;;;;;;;13.17;9.77;;;;;;;10.41;100.00;101903.88;5073697;28;20044;-34
2022/10/13 00:29:31;;;;;;;15.50;10.50;;;;;;;10.46;100.00;101907.63;5073465;28;20099;-34
2022/10/13 00:31:56;;;;;;;14.53;10.07;;;;;;;10.45;100.00;101891.59;5073165;28;20533;-34
2022/10/13 00:34:22;;;;;;;15.53;9.60;;;;;;;10.51;100.00;101910.53;5072933;28;20112;-34
2022/10/13 00:36:47;;;;;;;15.33;9.27;;;;;;;10.46;100.00;101899.50;5073772;28;20032;-35
2022/10/13 00:39:12;;;;;;;14.67;10.80;;;;;;;10.55;100.00;101913.69;5072966;28;20455;-35
2022/10/13 00:41:37;;;;;;;13.57;9.47;;;;;;;10.54;100.00;101911.97;5072721;28;20024;-34
2022/10/13 00:44:41;;;;;;;12.83;9.97;;;;;;;10.57;100.00;101904.31;5073820;28;20085;-34
2022/10/13 00:47:07;;;;;;;15.07;10.05;;;;;;;10.62;100.00;101916.38;5073321;28;20021;-34
2022/10/13 00:49:32;;;;;;;15.65;10.30;;;;;;;10.64;100.00;101912.44;5073484;28;20036;-34
2022/10/13 00:51:58;;;;;;;15.53;9.63;;;;;;;10.62;100.00;101908.28;5072738;28;20027;-34
2022/10/13 00:54:24;;;;;;;16.87;10.37;;;;;;;10.65;100.00;101906.00;5072978;28;20027;-34
2022/10/13 00:56:51;;;;;;;15.77;9.75;;;;;;;10.57;100.00;101892.66;5073366;28;20322;-34
2022/10/13 00:59:22;;;;;;;13.25;9.02;;;;;;;10.64;100.00;101907.03;5072535;28;20047;-34
2022/10/13 01:01:49;;;;;;;17.75;9.93;;;;;;;10.63;100.00;101897.22;5072848;28;20031;-35
2022/10/13 01:04:18;;;;;;;13.23;9.50;;;;;;;10.62;100.00;101905.56;5072330;28;20469;-34
2022/10/13 01:06:44;;;;;;;14.48;9.32;;;;;;;10.56;100.00;101894.53;5072594;28;20033;-34
2022/10/13 01:09:09;;;;;;;14.07;9.30;;;;;;;10.54;100.00;101885.81;5073342;28;20112;-34
2022/10/13 01:11:46;;;;;;;16.37;9.83;;;;;;;10.60;100.00;101894.97;5072549;28;20443;-34
2022/10/13 01:14:39;;;;;;;12.77;9.45;;;;;;;10.66;100.00;101896.00;5072748;28;20108;-34
2022/10/13 01:17:11;;;;;;;15.32;9.07;;;;;;;10.66;100.00;101888.72;5072504;28;20025;-34
2022/10/13 01:20:05;;;;;;;15.95;9.90;;;;;;;10.69;100.00;101901.00;5055153;28;20029;-35
2022/10/13 01:23:08;;;;;;;14.13;9.95;;;;;;;10.71;100.00;101893.50;4988109;28;20466;-34
2022/10/13 01:26:05;;;;;;;15.60;10.02;;;;;;;10.74;100.00;101899.34;4990848;28;20109;-34
2022/10/13 01:29:09;;;;;;;12.52;10.07;;;;;;;10.76;100.00;101901.84;4952695;28;20507;-34
2022/10/13 01:31:50;;;;;;;13.90;9.60;;;;;;;10.74;100.00;101902.06;4899421;29;20041;-35
2022/10/13 01:34:18;;;;;;;12.05;9.32;;;;;;;10.75;100.00;101900.19;4883794;29;20478;-35
2022/10/13 01:37:18;;;;;;;15.15;10.10;;;;;;;10.74;100.00;101901.22;4898904;29;20608;-34
2022/10/13 01:39:49;;;;;;;13.10;9.50;;;;;;;10.65;100.00;101883.53;4898962;29;20048;-35
2022/10/13 01:42:56;;;;;;;12.75;9.07;;;;;;;10.77;100.00;101893.50;4899049;29;20526;-35
2022/10/13 01:45:30;;;;;;;16.13;9.40;;;;;;;10.78;100.00;101895.19;4898485;29;20482;-34
2022/10/13 01:47:57;;;;;;;15.38;9.18;;;;;;;10.80;100.00;101893.09;4898495;29;20037;-34
2022/10/13 01:50:22;;;;;;;18.33;9.98;;;;;;;10.76;100.00;101883.72;4898755;29;20040;-34
2022/10/13 01:52:49;;;;;;;15.50;9.60;;;;;;;10.82;100.00;101891.00;4898694;29;20049;-34
2022/10/13 01:55:14;;;;;;;15.20;9.48;;;;;;;10.78;100.00;101883.50;4898412;29;20059;-35
2022/10/13 01:57:42;;;;;;;13.57;8.60;;;;;;;10.85;100.00;101878.97;4898807;29;20084;-35
2022/10/13 02:00:13;;;;;;;18.60;9.60;;;;;;;10.85;100.00;101883.53;4939773;29;20039;-34
2022/10/13 02:03:16;;;;;;;16.77;9.52;;;;;;;10.88;100.00;101888.53;4955676;29;20122;-34
2022/10/13 02:05:48;;;;;;;13.07;8.95;;;;;;;10.82;100.00;101868.53;5004818;28;20056;-34
2022/10/13 02:08:13;;;;;;;15.88;9.27;;;;;;;10.89;100.00;101866.69;5041050;28;20071;-34
2022/10/13 02:10:57;;;;;;;14.37;9.77;;;;;;;10.90;100.00;101870.22;5075821;28;20362;-35
2022/10/13 02:13:26;;;;;;;16.33;9.88;;;;;;;10.76;100.00;101848.56;5075708;28;20107;-35
2022/10/13 02:15:55;;;;;;;14.55;9.73;;;;;;;10.88;100.00;101872.28;5075624;28;20099;-34
2022/10/13 02:18:25;;;;;;;17.48;9.75;;;;;;;10.89;100.00;101863.97;5075234;28;20032;-34
2022/10/13 02:20:51;;;;;;;13.35;9.55;;;;;;;10.88;100.00;101861.47;5075602;28;20090;-34
2022/10/13 02:23:18;;;;;;;16.77;10.18;;;;;;;10.74;100.00;101839.84;5075400;28;20028;-34
2022/10/13 02:25:44;;;;;;;18.27;9.57;;;;;;;10.93;100.00;101858.97;5074949;28;20518;-34
2022/10/13 02:28:09;;;;;;;15.80;9.95;;;;;;;10.92;100.00;101851.88;5075349;28;20032;-35
2022/10/13 02:30:38;;;;;;;19.30;10.35;;;;;;;10.94;100.00;101856.06;5075245;28;20040;-34
2022/10/13 02:33:03;;;;;;;14.18;8.85;;;;;;;10.93;100.00;101849.00;5075583;28;20032;-34
2022/10/13 02:35:29;;;;;;;11.82;8.73;;;;;;;10.93;100.00;101848.13;5075102;28;20480;-34
2022/10/13 02:37:55;;;;;;;;;;;;;;;10.96;100.00;101856.66;5075744;28;20380;-34
2022/10/13 02:40:20;;;;;;;18.42;8.90;;;;;;;10.91;100.00;101840.22;5074413;28;19966;-35
2022/10/13 02:42:46;;;;;;;14.87;9.50;;;;;;;10.91;100.00;101844.81;5074901;28;20024;-34
2022/10/13 02:45:11;;;;;;;15.13;9.43;;;;;;;10.93;100.00;101845.44;5057636;28;20174;-35
2022/10/13 02:47:36;;;;;;;14.80;9.40;;;;;;;10.87;100.00;101844.41;5075395;28;20119;-35
2022/10/13 02:50:02;;;;;;;12.97;8.93;;;;;;;10.91;100.00;101842.94;5056767;28;20044;-35
2022/10/13 02:52:27;;;;;;;15.25;9.82;;;;;;;10.89;100.00;101845.03;5074875;28;20060;-34
2022/10/13 02:54:53;;;;;;;14.70;9.15;;;;;;;10.86;100.00;101837.31;5074656;28;20059;-35
2022/10/13 02:57:18;;;;;;;12.83;9.43;;;;;;;10.90;100.00;101833.16;5074992;28;20029;-34
2022/10/13 02:59:43;;;;;;;14.73;9.70;;;;;;;10.93;100.00;101835.47;5074951;28;20279;-35
2022/10/13 03:02:09;;;;;;;15.77;10.27;;;;;;;10.92;100.00;101831.06;5074930;28;20536;-35
2022/10/13 03:04:34;;;;;;;17.27;9.43;;;;;;;10.93;100.00;101832.75;5074369;28;20389;-35
2022/10/13 03:07:00;;;;;;;13.27;8.43;;;;;;;10.95;100.00;101836.06;5074472;28;20564;-34
2022/10/13 03:09:26;;;;;;;14.73;9.30;;;;;;;10.95;100.00;101824.41;5074060;28;20064;-35
2022/10/13 03:11:51;;;;;;;14.40;9.25;;;;;;;10.95;100.00;101833.38;5074475;28;20029;-35
2022/10/13 03:14:17;;;;;;;16.33;8.87;;;;;;;10.96;100.00;101826.91;5074236;28;20029;-35
2022/10/13 03:16:42;;;;;;;14.00;8.83;;;;;;;10.98;100.00;101826.69;5056997;28;20024;-35
2022/10/13 03:19:07;;;;;;;11.50;8.87;;;;;;;10.96;100.00;101817.97;5074801;28;20099;-35
2022/10/13 03:21:32;;;;;;;13.00;8.83;;;;;;;10.93;100.00;101816.53;5074886;28;20024;-35
2022/10/13 03:23:58;;;;;;;14.67;9.67;;;;;;;10.98;100.00;101824.84;5075121;28;20025;-35
2022/10/13 03:26:23;;;;;;;13.07;9.00;;;;;;;10.98;100.00;101819.44;5074144;28;20414;-35
2022/10/13 03:28:50;;;;;;;13.63;9.40;;;;;;;10.98;100.00;101824.84;5074421;28;20104;-35
2022/10/13 03:31:16;;;;;;;13.07;9.48;;;;;;;10.94;100.00;101815.47;5073990;28;20380;-34
2022/10/13 03:33:42;;;;;;;15.00;9.00;;;;;;;10.97;100.00;101815.03;5073960;28;20040;-34
2022/10/13 03:36:09;;;;;;;;;;;;;;;11.02;100.00;101817.94;5056390;28;20028;-35
2022/10/13 03:38:35;;;;;;;13.13;8.65;;;;;;;11.00;100.00;101817.31;5074500;28;19908;-34
2022/10/13 03:41:08;;;;;;;18.90;9.23;;;;;;;11.01;100.00;101801.91;5073691;28;20032;-35
2022/10/13 03:43:34;;;;;;;12.05;9.02;;;;;;;11.01;100.00;101808.16;5073925;28;20051;-35
2022/10/13 03:46:02;;;;;;;14.70;8.63;;;;;;;10.96;100.00;101802.53;5073725;28;20461;-34
2022/10/13 03:48:28;;;;;;;12.30;8.13;;;;;;;10.98;100.00;101795.06;5056181;28;20032;-35
2022/10/13 03:50:54;;;;;;;9.43;7.90;;;;;;;11.06;100.00;101799.41;5073365;28;20036;-35
2022/10/13 03:53:20;;;;;;;12.02;8.50;;;;;;;11.08;100.00;101794.63;5073089;28;20153;-34
2022/10/13 03:55:55;;;;;;;13.05;8.15;;;;;;;11.03;100.00;101792.56;5073873;28;20071;-36
2022/10/13 03:58:22;;;;;;;13.15;8.35;;;;;;;11.09;100.00;101788.19;5073535;28;20043;-34
2022/10/13 04:00:48;;;;;;;13.75;8.60;;;;;;;11.06;100.00;101777.75;5073206;28;20056;-35
2022/10/13 04:03:14;;;;;;;11.65;8.05;;;;;;;11.12;100.00;101789.59;5073417;28;20082;-35
2022/10/13 04:05:40;;;;;;;11.85;8.27;;;;;;;11.12;100.00;101784.19;5073289;28;20028;-34
2022/10/13 04:08:05;;;;;;;10.17;8.03;;;;;;;11.07;100.00;101782.13;5073914;28;20042;-34
2022/10/13 04:10:31;;;;;;;11.00;7.93;;;;;;;11.14;100.00;101776.72;5073347;28;20071;-34
2022/10/13 04:12:56;;;;;;;14.35;8.27;;;;;;;11.11;100.00;101766.31;5073464;28;20032;-34
2022/10/13 04:15:21;;;;;;;10.40;9.00;;;;;;;11.12;100.00;101766.06;5073171;28;20025;-34
2022/10/13 04:17:47;;;;;;;11.70;8.07;;;;;;;11.16;100.00;101778.16;5072866;28;20099;-34
2022/10/13 04:20:12;;;;;;;10.53;8.33;;;;;;;11.16;100.00;101780.03;5072853;28;20107;-34
2022/10/13 04:22:37;;;;;;;11.20;8.20;;;;;;;11.18;100.00;101775.25;5073080;28;20028;-34
2022/10/13 04:25:03;;;;;;;14.97;9.10;;;;;;;11.18;100.00;101780.66;5073016;28;20270;-34
2022/10/13 04:27:29;;;;;;;12.13;8.13;;;;;;;11.12;100.00;101767.97;5073329;28;20041;-34
2022/10/13 04:29:55;;;;;;;11.07;9.05;;;;;;;11.11;100.00;101764.41;5072685;28;20033;-34
2022/10/13 04:32:21;;;;;;;14.48;8.60;;;;;;;11.12;100.00;101754.41;5073163;28;20032;-35
2022/10/13 04:34:46;;;;;;;13.27;8.73;;;;;;;11.19;100.00;101771.50;5073482;28;20303;-35
2022/10/13 04:37:11;;;;;;;13.77;9.07;;;;;;;11.17;100.00;101760.03;5073475;28;20443;-35
2022/10/13 04:39:37;;;;;;;14.53;8.40;;;;;;;11.15;100.00;101754.84;5055405;28;20045;-34
2022/10/13 04:42:02;;;;;;;12.13;8.90;;;;;;;11.14;100.00;101761.31;5072966;28;20107;-34
2022/10/13 04:44:28;;;;;;;14.13;8.70;;;;;;;11.14;100.00;101769.41;5072895;28;20028;-34
2022/10/13 04:46:53;;;;;;;15.47;8.73;;;;;;;11.14;100.00;101768.59;5073322;28;20029;-34
2022/10/13 04:49:18;;;;;;;13.57;8.70;;;;;;;11.14;100.00;101774.00;5072460;28;20271;-34
2022/10/13 04:51:44;;;;;;;12.73;8.57;;;;;;;11.10;100.00;101773.59;5072865;28;20464;-34
2022/10/13 04:54:09;;;;;;;12.03;8.40;;;;;;;11.05;100.00;101757.16;5072791;28;20373;-34
2022/10/13 04:56:35;;;;;;;14.77;8.82;;;;;;;11.05;100.00;101759.84;5073318;28;20434;-34
2022/10/13 04:59:04;;;;;;;13.30;9.18;;;;;;;11.11;100.00;101769.84;5072758;28;20106;-35
2022/10/13 05:01:30;;;;;;;12.30;8.35;;;;;;;11.11;100.00;101769.84;5072281;28;20029;-34
2022/10/13 05:03:58;;;;;;;13.32;8.75;;;;;;;11.08;100.00;101772.97;5074619;28;20388;-34
2022/10/13 05:06:27;;;;;;;13.38;8.85;;;;;;;11.05;100.00;101760.69;5078995;28;20020;-34
2022/10/13 05:08:53;;;;;;;14.43;9.18;;;;;;;11.08;100.00;101765.69;5079489;28;20374;-34
2022/10/13 05:11:19;;;;;;;14.77;8.95;;;;;;;11.11;100.00;101758.19;5079204;28;20082;-34
2022/10/13 05:13:45;;;;;;;12.65;8.82;;;;;;;11.03;100.00;101741.13;5079947;28;20036;-35
2022/10/13 05:16:13;;;;;;;11.73;8.07;;;;;;;11.07;100.00;101747.75;5079438;28;20067;-35
2022/10/13 05:18:38;;;;;;;13.75;8.57;;;;;;;11.02;100.00;101744.84;5078949;28;20125;-35
2022/10/13 05:21:08;;;;;;;12.57;8.45;;;;;;;11.06;100.00;101759.63;5079027;28;20028;-34
2022/10/13 05:23:34;;;;;;;12.65;9.60;;;;;;;11.04;100.00;101758.19;5079410;28;20464;-34
2022/10/13 05:26:05;;;;;;;13.43;8.23;;;;;;;11.05;100.00;101776.09;5079232;28;20029;-35
2022/10/13 05:28:30;;;;;;;13.30;8.50;;;;;;;11.02;100.00;101754.84;5078780;28;20495;-35
2022/10/13 05:30:55;;;;;;;15.45;9.00;;;;;;;11.03;100.00;101770.09;5079221;28;20040;-35
2022/10/13 05:33:21;;;;;;;11.23;8.30;;;;;;;11.03;100.00;101772.78;5079214;28;20400;-35
2022/10/13 05:35:46;;;;;;;13.97;9.33;;;;;;;11.03;100.00;101761.97;5078803;28;20060;-35
2022/10/13 05:38:11;;;;;;;19.13;9.80;;;;;;;11.03;100.00;101773.63;5061446;28;20435;-35
2022/10/13 05:40:37;;;;;;;15.30;9.00;;;;;;;11.03;100.00;101773.63;5078867;28;20027;-35
2022/10/13 05:43:02;;;;;;;12.90;9.00;;;;;;;11.04;100.00;101772.56;5078721;28;20098;-35
2022/10/13 05:45:31;;;;;;;11.65;8.43;;;;;;;10.98;100.00;101759.88;5078939;28;20036;-35
2022/10/13 05:47:56;;;;;;;15.07;9.18;;;;;;;11.04;100.00;101763.63;5079428;28;20039;-35
2022/10/13 05:50:21;;;;;;;16.90;9.60;;;;;;;10.93;100.00;101750.72;5078575;28;20028;-35
2022/10/13 05:52:47;;;;;;;15.20;9.33;;;;;;;11.04;100.00;101764.44;5079396;28;20263;-35
2022/10/13 05:55:15;;;;;;;15.60;9.77;;;;;;;11.04;100.00;101752.78;5078349;28;20056;-34
2022/10/13 05:57:43;;;;;;;13.77;9.52;;;;;;;11.02;100.00;101760.28;5060666;28;20033;-35
2022/10/13 06:00:17;;;;;;;15.65;9.55;;;;;;;11.03;100.00;101757.38;5078588;28;20025;-34
2022/10/13 06:02:53;;;;;;;15.52;9.73;;;;;;;11.06;100.00;101761.53;5079196;28;20539;-34
2022/10/13 06:05:21;;;;;;;15.00;9.10;;;;;;;10.97;100.00;101743.84;5079246;28;20111;-35
2022/10/13 06:07:47;;;;;;;11.77;8.43;;;;;;;10.99;100.00;101745.31;5078647;28;20029;-34
2022/10/13 06:10:14;;;;;;;14.93;9.57;;;;;;;11.04;100.00;101750.91;5078616;28;20028;-35
2022/10/13 06:12:39;;;;;;;12.07;9.30;;;;;;;11.05;100.00;101751.75;5078708;28;20108;-35
2022/10/13 06:15:05;;;;;;;15.48;10.07;;;;;;;11.05;100.00;101754.44;5077196;28;20082;-35
2022/10/13 06:17:31;;;;;;;12.35;9.07;;;;;;;11.03;100.00;101746.56;5074922;28;20352;-34
2022/10/13 06:19:56;;;;;;;15.68;9.85;;;;;;;11.05;100.00;101749.03;5075009;28;20035;-34
2022/10/13 06:22:21;;;;;;;17.23;10.70;;;;;;;11.08;100.00;101735.91;5075874;28;20028;-35
2022/10/13 06:24:47;;;;;;;16.23;10.40;;;;;;;10.97;100.00;101714.91;5057477;28;20176;-34
2022/10/13 06:27:12;;;;;;;16.88;10.20;;;;;;;11.08;100.00;101746.75;5075537;28;20056;-34
2022/10/13 06:29:38;;;;;;;14.50;9.73;;;;;;;11.09;100.00;101751.09;5075259;28;20112;-34
2022/10/13 06:32:03;;;;;;;16.40;10.40;;;;;;;11.09;100.00;101750.28;5075636;28;20425;-35
2022/10/13 06:34:29;;;;;;;17.77;10.88;;;;;;;11.06;100.00;101737.16;5056652;28;20068;-34
2022/10/13 06:36:54;;;;;;;12.83;9.40;;;;;;;11.13;100.00;101748.00;5057585;28;20033;-34
2022/10/13 06:39:19;;;;;;;16.65;11.50;;;;;;;11.10;100.00;101730.28;5074871;28;20483;-34
2022/10/13 06:41:45;;;;;;;15.30;9.77;;;;;;;11.13;100.00;101740.69;5074846;28;20027;-34
2022/10/13 06:44:10;;;;;;;16.43;10.17;;;;;;;11.16;100.00;101734.84;5056899;28;20044;-34
2022/10/13 06:46:36;;;;;;;15.65;9.27;;;;;;;11.16;100.00;101739.41;5075704;28;20056;-34
2022/10/13 06:49:01;;;;;;;15.67;10.93;;;;;;;11.15;100.00;101743.19;5075442;28;20110;-34
2022/10/13 06:51:27;;;;;;;17.90;10.75;;;;;;;11.20;100.00;101743.38;5075300;28;20390;-34
2022/10/13 06:53:54;;;;;;;13.90;10.23;;;;;;;11.17;100.00;101730.25;5074809;28;20480;-34
2022/10/13 06:56:19;;;;;;;20.25;11.15;;;;;;;11.21;100.00;101732.31;5075373;28;20045;-35
2022/10/13 06:58:45;;;;;;;13.67;10.00;;;;;;;11.24;100.00;101731.06;5075821;28;20029;-34
2022/10/13 07:01:12;;;;;;;15.77;10.13;;;;;;;11.24;100.00;101737.31;5074911;28;20055;-34
2022/10/13 07:03:37;;;;;;;16.02;9.90;;;;;;;11.26;100.00;101735.22;5074840;28;20024;-35
2022/10/13 07:06:04;;;;;;;18.37;10.33;;;;;;;11.26;100.00;101742.50;5074815;28;20037;-35
2022/10/13 07:08:30;;;;;;;14.57;10.85;;;;;;;11.28;100.00;101748.56;5074844;28;20029;-35
2022/10/13 07:10:56;;;;;;;;;;;;;;;11.32;100.00;101734.38;5074862;28;20094;-34
2022/10/13 07:13:22;;;;;;;15.18;9.98;;;;;;;11.30;100.00;101735.63;5074726;28;20318;-35
2022/10/13 07:15:47;;;;;;;16.48;10.23;;;;;;;11.34;100.00;101726.88;5074673;28;20107;-35
2022/10/13 07:18:12;;;;;;;15.50;10.27;;;;;;;11.31;100.00;101727.28;5074701;28;20029;-35
2022/10/13 07:20:37;;;;;;;19.20;11.23;;;;;;;11.33;100.00;101740.63;5074524;28;20025;-34
2022/10/13 07:23:03;;;;;;;16.57;9.93;;;;;;;11.39;100.00;101733.50;5074594;28;20107;-34
2022/10/13 07:25:28;;;;;;;15.13;10.67;;;;;;;11.37;100.00;101735.59;5056937;28;20043;-35
2022/10/13 07:27:54;;;;;;;17.85;10.02;;;;;;;11.40;100.00;101735.16;5074398;28;20453;-35
2022/10/13 07:30:20;;;;;;;18.90;11.07;;;;;;;11.44;100.00;101739.94;5057176;28;20198;-34
2022/10/13 07:32:46;;;;;;;17.42;11.00;;;;;;;11.41;100.00;101734.94;5074894;28;20025;-34
2022/10/13 07:35:11;;;;;;;17.25;11.68;;;;;;;11.49;100.00;101736.59;5074142;28;20167;-35
2022/10/13 07:37:37;;;;;;;16.73;11.23;;;;;;;11.38;100.00;101721.03;5074817;28;20071;-35
2022/10/13 07:40:04;;;;;;;21.33;11.32;;;;;;;11.48;100.00;101735.78;5073815;28;20369;-34
2022/10/13 07:42:30;;;;;;;20.50;11.10;;;;;;;11.49;100.00;101737.41;5074867;28;20029;-35
2022/10/13 07:44:55;;;;;;;15.50;10.77;;;;;;;11.52;100.00;101738.88;5056126;28;20480;-35
2022/10/13 07:47:20;;;;;;;17.97;11.17;;;;;;;11.54;100.00;101743.03;5074104;28;20043;-34
2022/10/13 07:49:46;;;;;;;15.25;11.18;;;;;;;11.48;100.00;101718.69;5073938;28;20039;-35
2022/10/13 07:52:11;;;;;;;16.00;10.63;;;;;;;11.58;100.00;101738.84;5074190;28;20038;-34
2022/10/13 07:54:36;;;;;;;15.35;10.45;;;;;;;11.62;100.00;101727.59;5074150;28;20031;-34
2022/10/13 07:57:03;;;;;;;16.30;10.83;;;;;;;11.66;100.00;101735.03;5074019;28;20063;-34
2022/10/13 07:59:30;;;;;;;17.70;11.32;;;;;;;11.71;100.00;101732.53;5074392;28;20032;-35
2022/10/13 08:01:56;;;;;;;17.15;11.05;;;;;;;11.77;100.00;101730.84;5074524;28;20038;-35
2022/10/13 08:04:21;;;;;;;14.85;10.95;;;;;;;11.79;100.00;101737.69;5073468;28;20033;-35
2022/10/13 08:06:46;;;;;;;15.10;10.77;;;;;;;11.85;100.00;101744.13;5074007;28;20028;-35
2022/10/13 08:09:12;;;;;;;14.67;10.33;;;;;;;11.90;100.00;101740.78;5073706;28;20079;-35
2022/10/13 08:11:37;;;;;;;18.10;11.15;;;;;;;11.90;100.00;101736.19;5074276;28;20444;-35
2022/10/13 08:14:03;;;;;;;15.20;10.30;;;;;;;11.81;100.00;101710.38;5073878;28;20083;-35
2022/10/13 08:16:29;;;;;;;15.53;10.40;;;;;;;12.01;100.00;101738.22;5073162;28;20103;-35
2022/10/13 08:18:58;;;;;;;17.70;10.50;;;;;;;12.03;100.00;101738.81;5073440;28;20312;-35
2022/10/13 08:21:26;;;;;;;17.48;10.45;;;;;;;12.07;100.00;101737.34;5073099;28;20063;-34
2022/10/13 08:23:51;;;;;;;15.77;10.73;;;;;;;12.09;100.00;101727.09;5073191;28;20040;-34
2022/10/13 08:26:21;;;;;;;19.83;11.40;;;;;;;12.07;100.00;101721.06;5073125;28;20028;-35
2022/10/13 08:28:47;;;;;;;18.58;10.82;;;;;;;12.14;100.00;101720.19;5073871;28;20653;-35
2022/10/13 08:31:12;;;;;;;18.10;12.20;;;;;;;12.16;100.00;101718.94;5073050;28;20107;-35
2022/10/13 08:33:37;;;;;;;17.23;11.02;;;;;;;12.21;100.00;101716.38;5073393;28;20251;-34
2022/10/13 08:36:03;;;;;;;15.48;11.80;;;;;;;12.24;100.00;101723.22;5073139;28;20028;-34
2022/10/13 08:38:28;;;;;;;16.80;10.82;;;;;;;12.29;100.00;101723.41;5072391;28;20067;-34
2022/10/13 08:40:54;;;;;;;19.73;11.48;;;;;;;12.34;100.00;101718.13;5073108;28;20032;-34
2022/10/13 08:43:23;;;;;;;16.30;11.50;;;;;;;12.40;100.00;101719.16;5073934;28;20039;-34
2022/10/13 08:45:50;;;;;;;13.18;10.70;;;;;;;12.42;100.00;101717.88;5073089;28;20277;-34
2022/10/13 08:48:20;;;;;;;15.63;11.43;;;;;;;12.47;100.00;101712.59;5073025;28;20116;-34
2022/10/13 08:50:50;;;;;;;15.60;10.75;;;;;;;12.55;100.00;101712.34;5073022;28;20112;-34
2022/10/13 08:53:18;;;;;;;14.40;10.90;;;;;;;12.61;100.00;101708.72;5073233;28;20029;-34
2022/10/13 08:55:47;;;;;;;16.45;11.05;;;;;;;12.66;100.00;101715.38;5073488;28;20118;-34
2022/10/13 08:58:25;;;;;;;17.63;11.13;;;;;;;12.69;100.00;101712.19;5072701;28;20498;-34
2022/10/13 09:01:12;;;;;;;16.95;11.45;;;;;;;12.74;100.00;101720.50;5072558;28;20032;-34
2022/10/13 09:03:47;;;;;;;17.20;11.00;;;;;;;12.76;100.00;101718.41;5073409;28;20024;-34
2022/10/13 09:06:14;;;;;;;20.23;10.50;;;;;;;12.76;100.00;101707.53;5072773;28;20155;-34
2022/10/13 09:08:47;;;;;;;18.75;10.95;;;;;;;12.67;100.00;101707.00;5073701;28;20024;-35
2022/10/13 09:11:13;;;;;;;13.02;10.15;;;;;;;12.72;100.00;101706.31;5073518;28;20107;-34
2022/10/13 09:13:38;;;;;;;13.80;10.38;;;;;;;12.74;100.00;101709.66;5073373;28;20402;-34
2022/10/13 09:16:04;;;;;;;14.88;9.80;;;;;;;12.74;100.00;101709.66;5072830;28;20067;-35
2022/10/13 09:18:31;;;;;;;16.70;10.02;;;;;;;12.71;100.00;101713.63;5073288;28;20118;-35
2022/10/13 09:21:18;;;;;;;13.68;9.68;;;;;;;12.70;100.00;101698.41;5072276;28;20028;-35
2022/10/13 09:23:43;;;;;;;;;;;;;;;12.74;100.00;101705.06;5073606;28;20047;-35
2022/10/13 09:26:17;;;;;;;11.27;9.57;;;;;;;12.66;100.00;101699.91;5072649;28;19913;-35
2022/10/13 09:28:43;;;;;;;17.17;9.88;;;;;;;12.60;100.00;101703.53;5072695;28;20533;-35
2022/10/13 09:31:17;;;;;;;16.40;9.98;;;;;;;12.56;100.00;101691.47;5072441;28;20107;-35
2022/10/13 09:33:42;;;;;;;13.20;9.93;;;;;;;12.69;100.00;101706.75;5073166;28;20033;-35
2022/10/13 09:36:15;;;;;;;18.15;10.38;;;;;;;12.72;100.00;101701.72;5072437;28;20077;-35
2022/10/13 09:38:43;;;;;;;16.58;10.95;;;;;;;12.77;100.00;101709.19;5073396;28;20035;-35
2022/10/13 09:41:09;;;;;;;14.75;10.43;;;;;;;12.78;100.00;101700.81;5072570;28;20074;-35
2022/10/13 09:43:34;;;;;;;13.40;10.23;;;;;;;12.83;100.00;101697.44;5073053;28;20032;-35
2022/10/13 09:46:02;;;;;;;15.13;9.90;;;;;;;12.82;100.00;101693.06;5072894;28;20480;-35
2022/10/13 09:48:31;;;;;;;16.65;10.32;;;;;;;12.87;99.93;101693.22;5073260;28;20038;-35
2022/10/13 09:50:57;;;;;;;14.93;10.80;;;;;;;12.93;99.35;101696.91;5073247;28;20460;-35
2022/10/13 09:53:33;;;;;;;15.73;10.45;;;;;;;12.96;99.52;101696.47;5058666;28;20465;-35
2022/10/13 09:56:35;;;;;;;14.50;11.07;;;;;;;12.97;99.94;101698.94;5076177;28;20040;-35
2022/10/13 09:59:11;;;;;;;15.88;10.00;;;;;;;12.96;99.47;101702.72;5076219;28;20311;-35
2022/10/13 10:01:40;;;;;;;14.07;9.82;;;;;;;12.95;99.88;101701.06;5076329;28;20163;-35
2022/10/13 10:04:11;;;;;;;16.80;10.95;;;;;;;12.89;99.34;101691.13;5076227;28;20052;-35
2022/10/13 10:06:39;;;;;;;21.20;10.65;;;;;;;12.88;99.54;101698.44;5075731;28;20491;-35
2022/10/13 10:09:13;;;;;;;15.23;9.85;;;;;;;12.84;99.52;101694.50;5076232;28;20395;-35
2022/10/13 10:11:42;;;;;;;17.80;9.52;;;;;;;12.82;99.38;101701.22;5076119;28;20021;-35
2022/10/13 10:14:19;;;;;;;17.65;10.52;;;;;;;12.73;100.00;101681.66;5076308;28;20074;-35
2022/10/13 10:16:52;;;;;;;15.13;9.90;;;;;;;12.80;100.00;101681.63;5076307;28;20044;-35
2022/10/13 10:19:21;;;;;;;15.85;9.93;;;;;;;12.81;100.00;101683.28;5076054;28;20036;-35
2022/10/13 10:22:07;;;;;;;15.18;10.20;;;;;;;12.78;100.00;101684.53;5075465;28;20461;-35
2022/10/13 10:24:43;;;;;;;17.73;11.18;;;;;;;12.76;100.00;101681.22;5076351;28;20063;-35
2022/10/13 10:27:20;;;;;;;15.80;10.98;;;;;;;12.75;100.00;101678.75;5076061;28;20380;-35
2022/10/13 10:29:48;;;;;;;;;;;;;;;12.79;100.00;101677.25;5076514;28;20028;-35
2022/10/13 10:32:49;;;;;;;16.17;11.20;;;;;;;12.73;100.00;101692.53;5075743;28;19913;-35
2022/10/13 10:35:43;;;;;;;18.15;11.70;;;;;;;12.68;100.00;101688.81;4989473;28;20506;-35
2022/10/13 10:38:20;;;;;;;16.67;12.35;;;;;;;12.61;100.00;101692.44;4993749;28;20080;-35
2022/10/13 10:41:11;;;;;;;16.13;11.77;;;;;;;12.59;100.00;101672.84;4993895;28;20041;-35
2022/10/13 10:43:37;;;;;;;17.98;11.57;;;;;;;12.58;100.00;101673.06;4993683;28;20077;-35
2022/10/13 10:46:10;;;;;;;17.30;12.85;;;;;;;12.57;100.00;101684.97;4994300;28;20406;-35
2022/10/13 10:48:38;;;;;;;20.80;13.98;;;;;;;12.49;100.00;101671.69;4993692;28;20046;-35
2022/10/13 10:51:08;;;;;;;21.95;15.15;;;;;;;12.43;100.00;101659.84;4993557;28;20038;-35
2022/10/13 10:54:12;;;;;;;21.85;16.35;;;;;;;12.58;100.00;101683.91;4993948;28;20089;-35
2022/10/13 10:56:43;;;;;;;23.00;15.73;;;;;;;12.57;100.00;101674.13;4935719;29;20428;-35
2022/10/13 10:59:30;;;;;;;16.85;14.02;;;;;;;12.55;100.00;101668.94;4936145;29;20081;-35
2022/10/13 11:02:07;;;;;;;20.02;13.95;;;;;;;12.60;100.00;101671.78;4935111;29;20043;-35
2022/10/13 11:04:39;;;;;;;18.00;13.18;;;;;;;12.64;100.00;101683.03;4935789;29;20103;-35
2022/10/13 11:07:14;;;;;;;19.85;13.45;;;;;;;12.58;100.00;101659.50;4935974;29;20048;-35
2022/10/13 11:09:41;;;;;;;18.13;13.23;;;;;;;12.59;100.00;101651.16;4935887;29;20079;-35
2022/10/13 11:12:19;;;;;;;19.20;12.57;;;;;;;12.62;100.00;101658.81;4968073;28;20054;-35
2022/10/13 11:15:07;;;;;;;17.73;13.27;;;;;;;12.56;100.00;101646.16;4974040;28;20054;-35